createdAt,value
2018-06-23T00:01:05.142Z,25.03
2018-06-23T00:03:33.569Z,27.50
2018-06-23T00:06:01.969Z,24.60
2018-06-23T00:08:30.589Z,27.07
2018-06-23T00:10:58.974Z,22.07
2018-06-23T00:13:27.184Z,29.03
2018-06-23T00:15:55.600Z,31.00
2018-06-23T00:18:24.080Z,33.63
2018-06-23T00:20:52.677Z,27.73
2018-06-23T00:23:21.074Z,28.13
2018-06-23T00:25:54.952Z,28.47
2018-06-23T00:28:23.345Z,27.40
2018-06-23T00:30:51.762Z,25.63
2018-06-23T00:33:20.315Z,28.83
2018-06-23T00:35:48.729Z,28.33
2018-06-23T00:38:17.176Z,20.87
2018-06-23T00:40:45.589Z,25.33
2018-06-23T00:43:14.010Z,23.53
2018-06-23T00:45:42.475Z,36.13
2018-06-23T00:48:10.860Z,27.47
2018-06-23T00:50:39.252Z,33.20
2018-06-23T00:53:07.668Z,29.13
2018-06-23T00:55:36.070Z,26.53
2018-06-23T00:58:04.704Z,36.07
2018-06-23T01:00:33.090Z,19.80
2018-06-23T01:03:01.515Z,23.03
2018-06-23T01:05:29.945Z,24.73
2018-06-23T01:07:58.341Z,31.30
2018-06-23T01:10:26.716Z,25.70
2018-06-23T01:12:55.109Z,28.43
2018-06-23T01:15:23.481Z,26.87
2018-06-23T01:17:51.857Z,41.40
2018-06-23T01:20:20.276Z,31.10
2018-06-23T01:22:48.691Z,35.70
2018-06-23T01:25:17.105Z,25.47
2018-06-23T01:27:45.531Z,21.90
2018-06-23T01:30:13.944Z,24.67
2018-06-23T01:32:42.336Z,24.47
2018-06-23T01:35:10.765Z,27.23
2018-06-23T01:37:39.148Z,35.13
2018-06-23T01:40:07.545Z,40.07
2018-06-23T01:42:36.046Z,31.70
2018-06-23T01:45:04.466Z,29.30
2018-06-23T01:47:33.018Z,32.37
2018-06-23T01:50:01.424Z,32.03
2018-06-23T01:52:29.811Z,32.07
2018-06-23T01:54:58.212Z,23.73
2018-06-23T01:57:26.601Z,21.63
2018-06-23T01:59:55.175Z,36.97
2018-06-23T02:02:23.566Z,17.93
2018-06-23T02:04:51.949Z,24.50
2018-06-23T02:07:20.340Z,25.70
2018-06-23T02:09:48.792Z,27.50
2018-06-23T02:12:17.212Z,27.83
2018-06-23T02:14:50.776Z,35.60
2018-06-23T02:17:24.625Z,32.80
2018-06-23T02:19:58.589Z,25.93
2018-06-23T02:22:32.212Z,41.80
2018-06-23T02:25:06.072Z,38.30
2018-06-23T02:27:39.840Z,25.10
2018-06-23T02:30:13.717Z,30.07
2018-06-23T02:32:43.298Z,32.23
2018-06-23T02:35:11.859Z,22.70
2018-06-23T02:37:40.573Z,36.93
2018-06-23T02:40:09.069Z,26.20
2018-06-23T02:42:37.472Z,28.90
2018-06-23T02:45:07.078Z,32.83
2018-06-23T02:47:35.586Z,26.10
2018-06-23T02:50:04.108Z,35.77
2018-06-23T02:52:32.991Z,29.17
2018-06-23T02:55:01.939Z,31.17
2018-06-23T02:57:30.408Z,19.20
2018-06-23T02:59:59.136Z,28.40
2018-06-23T03:02:27.532Z,29.90
2018-06-23T03:04:56.067Z,29.63
2018-06-23T03:07:24.657Z,24.20
2018-06-23T03:09:53.056Z,37.93
2018-06-23T03:12:21.465Z,38.57
2018-06-23T03:14:49.865Z,32.40
2018-06-23T03:17:19.281Z,29.00
2018-06-23T03:19:49.214Z,29.63
2018-06-23T03:22:17.792Z,27.90
2018-06-23T03:24:46.169Z,36.27
2018-06-23T03:27:15.044Z,22.70
2018-06-23T03:29:43.478Z,28.60
2018-06-23T03:32:12.432Z,33.43
2018-06-23T03:34:40.936Z,32.60
2018-06-23T03:37:09.580Z,27.03
2018-06-23T03:39:37.984Z,25.47
2018-06-23T03:42:06.620Z,33.63
2018-06-23T03:44:35.229Z,35.43
2018-06-23T03:47:03.848Z,30.93
2018-06-23T03:49:32.244Z,27.33
2018-06-23T03:52:00.626Z,22.40
2018-06-23T03:54:28.763Z,24.70
2018-06-23T03:56:57.184Z,19.33
2018-06-23T03:59:25.580Z,19.40
2018-06-23T04:01:54.324Z,33.73
2018-06-23T04:04:22.692Z,32.20
2018-06-23T04:06:51.060Z,19.77
2018-06-23T04:09:19.571Z,29.17
2018-06-23T04:11:47.959Z,34.57
2018-06-23T04:14:16.341Z,42.03
2018-06-23T04:16:44.761Z,33.37
2018-06-23T04:19:13.132Z,32.20
2018-06-23T04:21:41.745Z,42.57
2018-06-23T04:24:10.132Z,28.50
2018-06-23T04:26:38.504Z,31.07
2018-06-23T04:29:07.047Z,24.47
2018-06-23T04:31:35.425Z,21.17
2018-06-23T04:34:03.825Z,28.87
2018-06-23T04:36:32.228Z,38.27
2018-06-23T04:39:00.620Z,16.90
2018-06-23T04:41:29.027Z,27.67
2018-06-23T04:43:57.430Z,24.30
2018-06-23T04:46:25.809Z,31.80
2018-06-23T04:48:54.190Z,36.47
2018-06-23T04:51:22.628Z,31.17
2018-06-23T04:53:51.000Z,36.43
2018-06-23T04:56:19.413Z,33.97
2018-06-23T04:58:47.911Z,28.67
2018-06-23T05:01:16.346Z,28.63
2018-06-23T05:03:44.733Z,19.50
2018-06-23T05:06:13.164Z,32.30
2018-06-23T05:08:41.560Z,32.93
2018-06-23T05:11:09.960Z,26.87
2018-06-23T05:13:38.600Z,23.43
2018-06-23T05:16:07.208Z,25.13
2018-06-23T05:18:35.601Z,30.03
2018-06-23T05:21:04.036Z,20.90
2018-06-23T05:23:32.444Z,30.50
2018-06-23T05:26:00.879Z,22.30
2018-06-23T05:28:29.253Z,28.17
2018-06-23T05:30:57.650Z,24.10
2018-06-23T05:33:26.057Z,24.23
2018-06-23T05:35:54.721Z,23.20
2018-06-23T05:38:23.085Z,26.37
2018-06-23T05:40:51.870Z,25.67
2018-06-23T05:43:20.273Z,20.10
2018-06-23T05:45:48.652Z,27.00
2018-06-23T05:48:17.043Z,19.53
2018-06-23T05:50:45.469Z,16.17
2018-06-23T05:53:14.735Z,19.83
2018-06-23T05:55:43.129Z,20.17
2018-06-23T05:58:11.550Z,23.23
2018-06-23T06:00:40.025Z,21.57
2018-06-23T06:03:08.420Z,20.77
2018-06-23T06:05:37.015Z,23.17
2018-06-23T06:08:05.453Z,22.60
2018-06-23T06:10:33.866Z,24.53
2018-06-23T06:13:02.295Z,18.57
2018-06-23T06:15:30.843Z,32.37
2018-06-23T06:17:59.273Z,24.43
2018-06-23T06:20:27.884Z,24.17
2018-06-23T06:22:56.284Z,19.57
2018-06-23T06:25:24.713Z,15.90
2018-06-23T06:27:53.276Z,25.77
2018-06-23T06:30:21.744Z,29.07
2018-06-23T06:32:50.251Z,28.50
2018-06-23T06:35:18.717Z,18.40
2018-06-23T06:37:47.099Z,23.50
2018-06-23T06:40:15.526Z,28.93
2018-06-23T06:42:43.988Z,26.43
2018-06-23T06:45:12.416Z,17.07
2018-06-23T06:47:40.808Z,22.20
2018-06-23T06:50:09.292Z,21.47
2018-06-23T06:52:37.694Z,19.93
2018-06-23T06:55:06.116Z,21.33
2018-06-23T06:57:34.607Z,21.43
2018-06-23T07:00:03.035Z,29.73
2018-06-23T07:02:31.415Z,17.30
2018-06-23T07:04:59.840Z,18.93
2018-06-23T07:07:28.262Z,38.37
2018-06-23T07:09:56.785Z,30.30
2018-06-23T07:12:25.200Z,19.50
2018-06-23T07:14:53.643Z,20.47
2018-06-23T07:17:22.091Z,16.90
2018-06-23T07:19:50.592Z,15.50
2018-06-23T07:22:18.961Z,19.43
2018-06-23T07:24:47.351Z,14.10
2018-06-23T07:27:15.776Z,21.03
2018-06-23T07:29:44.255Z,21.03
2018-06-23T07:32:12.674Z,20.33
2018-06-23T07:34:41.216Z,22.50
2018-06-23T07:37:09.552Z,16.60
2018-06-23T07:39:37.957Z,13.33
2018-06-23T07:42:06.625Z,20.97
2018-06-23T07:44:35.062Z,24.67
2018-06-23T07:47:03.443Z,15.43
2018-06-23T07:49:31.868Z,14.67
2018-06-23T07:51:59.950Z,15.53
2018-06-23T07:54:28.333Z,18.33
2018-06-23T07:56:56.848Z,15.87
2018-06-23T07:59:25.269Z,20.57
2018-06-23T08:01:54.195Z,15.30
2018-06-23T08:04:22.826Z,13.03
2018-06-23T08:06:51.228Z,15.67
2018-06-23T08:09:19.640Z,18.50
2018-06-23T08:11:48.218Z,15.37
2018-06-23T08:14:16.600Z,14.57
2018-06-23T08:16:45.011Z,14.57
2018-06-23T08:19:13.708Z,13.77
2018-06-23T08:21:42.212Z,12.63
2018-06-23T08:24:10.614Z,19.80
2018-06-23T08:26:39.362Z,11.33
2018-06-23T08:29:07.759Z,15.50
2018-06-23T08:31:36.189Z,21.63
2018-06-23T08:34:04.800Z,17.50
2018-06-23T08:36:33.223Z,10.10
2018-06-23T08:39:01.758Z,22.63
2018-06-23T08:41:30.415Z,16.47
2018-06-23T08:43:58.957Z,11.90
2018-06-23T08:46:28.003Z,10.53
2018-06-23T08:48:56.401Z,17.50
2018-06-23T08:51:24.789Z,10.00
2018-06-23T08:53:53.079Z,20.10
2018-06-23T08:56:21.703Z,15.53
2018-06-23T08:58:50.167Z,15.17
2018-06-23T09:01:18.800Z,13.93
2018-06-23T09:03:47.204Z,10.50
2018-06-23T09:06:15.633Z,10.37
2018-06-23T09:08:44.049Z,16.07
2018-06-23T09:11:12.470Z,18.27
2018-06-23T09:13:40.901Z,10.23
2018-06-23T09:16:09.413Z,17.43
2018-06-23T09:18:38.007Z,16.87
2018-06-23T09:21:06.449Z,8.90
2018-06-23T09:23:34.872Z,11.17
2018-06-23T09:26:03.320Z,7.93
2018-06-23T09:28:31.695Z,10.67
2018-06-23T09:31:00.165Z,17.80
2018-06-23T09:33:28.272Z,14.20
2018-06-23T09:35:56.694Z,14.17
2018-06-23T09:38:25.172Z,11.43
2018-06-23T09:40:53.579Z,13.60
2018-06-23T09:43:21.982Z,23.60
2018-06-23T09:45:51.351Z,12.67
2018-06-23T09:48:19.713Z,14.50
2018-06-23T09:50:48.120Z,13.90
2018-06-23T09:53:16.680Z,18.23
2018-06-23T09:55:45.124Z,11.00
2018-06-23T09:58:13.504Z,13.00
2018-06-23T10:00:42.032Z,7.47
2018-06-23T10:03:10.583Z,12.20
2018-06-23T10:05:38.940Z,15.70
2018-06-23T10:08:07.345Z,13.87
2018-06-23T10:10:35.752Z,9.77
2018-06-23T10:13:04.203Z,11.43
2018-06-23T10:15:32.793Z,8.70
2018-06-23T10:18:01.296Z,11.23
2018-06-23T10:20:29.735Z,14.90
2018-06-23T10:22:58.165Z,23.57
2018-06-23T10:25:26.707Z,14.10
2018-06-23T10:27:55.132Z,11.70
2018-06-23T10:30:23.567Z,13.30
2018-06-23T10:32:51.989Z,9.43
2018-06-23T10:35:20.441Z,11.87
2018-06-23T10:37:48.883Z,15.27
2018-06-23T10:40:17.311Z,10.50
2018-06-23T10:42:45.803Z,13.57
2018-06-23T10:45:14.193Z,14.37
2018-06-23T10:47:42.610Z,16.57
2018-06-23T10:50:11.065Z,17.13
2018-06-23T10:52:39.582Z,13.43
2018-06-23T10:55:08.015Z,17.47
2018-06-23T10:57:36.396Z,17.93
2018-06-23T11:00:05.276Z,11.00
2018-06-23T11:02:33.694Z,18.43
2018-06-23T11:05:02.163Z,7.73
2018-06-23T11:07:30.556Z,11.63
2018-06-23T11:09:58.955Z,8.57
2018-06-23T11:12:27.381Z,9.13
2018-06-23T11:14:55.805Z,14.80
2018-06-23T11:17:24.282Z,14.20
2018-06-23T11:19:52.702Z,12.80
2018-06-23T11:22:21.229Z,12.70
2018-06-23T11:24:50.036Z,11.97
2018-06-23T11:27:18.431Z,17.03
2018-06-23T11:29:46.955Z,7.87
2018-06-23T11:32:15.510Z,12.03
2018-06-23T11:34:43.853Z,12.67
2018-06-23T11:37:12.119Z,12.10
2018-06-23T11:39:40.560Z,11.90
2018-06-23T11:42:08.953Z,12.07
2018-06-23T11:44:37.400Z,12.47
2018-06-23T11:47:06.254Z,14.43
2018-06-23T11:49:34.679Z,14.30
2018-06-23T11:52:03.142Z,14.07
2018-06-23T11:54:31.549Z,11.87
2018-06-23T11:57:00.000Z,9.73
2018-06-23T11:59:28.656Z,14.27
2018-06-23T12:01:57.189Z,16.10
2018-06-23T12:04:26.605Z,16.03
2018-06-23T12:06:55.394Z,15.30
2018-06-23T12:09:24.397Z,12.37
2018-06-23T12:11:53.293Z,6.67
2018-06-23T12:14:21.760Z,12.87
2018-06-23T12:16:50.360Z,10.03
2018-06-23T12:19:19.012Z,14.87
2018-06-23T12:21:47.412Z,11.53
2018-06-23T12:24:15.862Z,15.80
2018-06-23T12:26:44.284Z,10.03
2018-06-23T12:29:12.769Z,8.77
2018-06-23T12:31:41.214Z,13.20
2018-06-23T12:34:09.692Z,12.60
2018-06-23T12:36:38.172Z,11.13
2018-06-23T12:39:09.550Z,13.37
2018-06-23T12:41:38.282Z,16.43
2018-06-23T12:44:06.810Z,12.17
2018-06-23T12:46:36.617Z,13.77
2018-06-23T12:49:05.282Z,16.00
2018-06-23T12:51:34.064Z,15.60
2018-06-23T12:54:02.578Z,11.70
2018-06-23T12:56:31.091Z,12.30
2018-06-23T12:58:59.529Z,14.13
2018-06-23T13:01:27.901Z,14.33
2018-06-23T13:03:56.346Z,10.93
2018-06-23T13:06:25.097Z,9.67
2018-06-23T13:08:53.500Z,10.47
2018-06-23T13:11:22.049Z,11.67
2018-06-23T13:13:50.464Z,8.10
2018-06-23T13:16:18.876Z,11.93
2018-06-23T13:18:47.279Z,12.40
2018-06-23T13:21:15.841Z,13.90
2018-06-23T13:23:44.284Z,9.07
2018-06-23T13:26:12.725Z,8.60
2018-06-23T13:28:41.144Z,8.97
2018-06-23T13:31:09.584Z,8.60
2018-06-23T13:33:38.005Z,9.30
2018-06-23T13:36:06.437Z,8.57
2018-06-23T13:38:34.986Z,9.90
2018-06-23T13:41:05.557Z,11.10
2018-06-23T13:43:34.409Z,8.63
2018-06-23T13:46:02.908Z,10.73
2018-06-23T13:48:31.333Z,9.10
2018-06-23T13:50:59.912Z,8.53
2018-06-23T13:53:28.433Z,13.37
2018-06-23T13:55:56.863Z,11.30
2018-06-23T13:58:25.377Z,9.60
2018-06-23T14:00:54.013Z,9.93
2018-06-23T14:03:22.787Z,9.97
2018-06-23T14:05:51.188Z,16.43
2018-06-23T14:08:19.644Z,7.83
2018-06-23T14:10:48.088Z,9.13
2018-06-23T14:13:16.512Z,7.97
2018-06-23T14:15:44.953Z,9.73
2018-06-23T14:18:13.365Z,10.67
2018-06-23T14:20:41.964Z,8.27
2018-06-23T14:23:10.368Z,7.37
2018-06-23T14:25:38.805Z,11.70
2018-06-23T14:28:07.408Z,11.80
2018-06-23T14:30:35.665Z,10.83
2018-06-23T14:33:04.101Z,7.60
2018-06-23T14:35:32.833Z,5.47
2018-06-23T14:38:01.332Z,10.23
2018-06-23T14:40:29.757Z,8.00
2018-06-23T14:42:58.169Z,6.83
2018-06-23T14:45:26.596Z,7.67
2018-06-23T14:47:55.239Z,7.13
2018-06-23T14:50:23.665Z,10.23
2018-06-23T14:52:52.173Z,8.50
2018-06-23T14:55:20.568Z,8.93
2018-06-23T14:57:48.967Z,9.97
2018-06-23T15:00:17.409Z,5.20
2018-06-23T15:02:45.844Z,5.90
2018-06-23T15:05:14.281Z,14.00
2018-06-23T15:07:42.984Z,7.90
2018-06-23T15:10:22.751Z,8.63
2018-06-23T15:13:02.364Z,9.90
2018-06-23T15:15:30.806Z,8.73
2018-06-23T15:17:59.221Z,6.67
2018-06-23T15:20:27.774Z,5.93
2018-06-23T15:22:56.320Z,8.30
2018-06-23T15:25:24.790Z,4.67
2018-06-23T15:27:53.276Z,7.73
2018-06-23T15:30:21.737Z,9.27
2018-06-23T15:32:50.147Z,8.23
2018-06-23T15:35:18.586Z,7.70
2018-06-23T15:37:47.072Z,8.87
2018-06-23T15:40:15.585Z,9.23
2018-06-23T15:42:43.992Z,8.80
2018-06-23T15:45:12.402Z,11.87
2018-06-23T15:47:41.017Z,10.13
2018-06-23T15:50:09.460Z,9.80
2018-06-23T15:52:37.897Z,7.43
2018-06-23T15:55:06.503Z,13.03
2018-06-23T15:57:34.981Z,7.70
2018-06-23T16:00:03.472Z,9.03
2018-06-23T16:02:31.872Z,10.33
2018-06-23T16:05:00.279Z,14.87
2018-06-23T16:07:28.859Z,8.90
2018-06-23T16:09:57.356Z,8.47
2018-06-23T16:12:25.773Z,10.93
2018-06-23T16:14:54.355Z,6.67
2018-06-23T16:17:22.780Z,12.77
2018-06-23T16:19:51.165Z,12.70
2018-06-23T16:22:19.680Z,9.17
2018-06-23T16:24:48.236Z,9.90
2018-06-23T16:27:16.620Z,8.57
2018-06-23T16:29:45.233Z,8.43
2018-06-23T16:32:13.632Z,12.70
2018-06-23T16:34:42.279Z,9.70
2018-06-23T16:37:10.556Z,12.80
2018-06-23T16:39:38.997Z,10.93
2018-06-23T16:42:07.483Z,14.37
2018-06-23T16:44:36.079Z,12.90
2018-06-23T16:47:04.476Z,14.63
2018-06-23T16:49:33.229Z,9.37
2018-06-23T16:52:01.729Z,4.87
2018-06-23T16:54:30.141Z,11.00
2018-06-23T16:56:58.596Z,12.90
2018-06-23T16:59:27.086Z,9.70
2018-06-23T17:01:55.877Z,9.20
2018-06-23T17:04:24.317Z,10.17
2018-06-23T17:06:53.896Z,6.97
2018-06-23T17:09:22.600Z,9.20
2018-06-23T17:11:51.307Z,8.10
2018-06-23T17:14:20.110Z,12.00
2018-06-23T17:16:48.853Z,9.00
2018-06-23T17:19:17.612Z,10.80
2018-06-23T17:21:46.676Z,13.00
2018-06-23T17:24:15.300Z,8.60
2018-06-23T17:26:43.672Z,10.10
2018-06-23T17:29:12.160Z,10.80
2018-06-23T17:31:40.588Z,16.47
2018-06-23T17:34:09.088Z,7.47
2018-06-23T17:36:37.577Z,11.07
2018-06-23T17:39:07.713Z,7.87
2018-06-23T17:41:36.405Z,6.43
2018-06-23T17:44:05.445Z,12.80
2018-06-23T17:46:34.117Z,8.50
2018-06-23T17:49:02.631Z,7.47
2018-06-23T17:51:31.126Z,7.10
2018-06-23T17:53:59.689Z,14.10
2018-06-23T17:56:28.172Z,12.00
2018-06-23T17:58:59.434Z,13.30
2018-06-23T18:01:30.777Z,12.33
2018-06-23T18:03:59.376Z,14.63
2018-06-23T18:06:30.224Z,10.40
2018-06-23T18:09:01.427Z,9.33
2018-06-23T18:11:31.636Z,8.73
2018-06-23T18:14:01.269Z,10.10
2018-06-23T18:16:31.106Z,10.13
2018-06-23T18:18:59.544Z,10.07
2018-06-23T18:21:28.132Z,8.73
2018-06-23T18:23:56.755Z,8.27
2018-06-23T18:26:25.124Z,13.47
2018-06-23T18:28:53.784Z,11.20
2018-06-23T18:31:22.200Z,10.90
2018-06-23T18:33:50.584Z,15.93
2018-06-23T18:36:18.989Z,12.13
2018-06-23T18:38:47.621Z,8.57
2018-06-23T18:41:16.100Z,10.93
2018-06-23T18:43:44.532Z,15.13
2018-06-23T18:46:13.009Z,14.53
2018-06-23T18:48:41.715Z,10.70
2018-06-23T18:51:10.837Z,13.87
2018-06-23T18:53:39.883Z,12.80
2018-06-23T18:56:08.502Z,11.43
2018-06-23T18:58:36.926Z,8.27
2018-06-23T19:01:05.588Z,12.87
2018-06-23T19:03:34.391Z,11.10
2018-06-23T19:06:02.797Z,10.20
2018-06-23T19:08:31.313Z,10.80
2018-06-23T19:10:59.776Z,7.47
2018-06-23T19:13:28.221Z,10.07
2018-06-23T19:15:56.829Z,9.33
2018-06-23T19:18:25.232Z,12.33
2018-06-23T19:20:53.824Z,10.03
2018-06-23T19:23:22.252Z,8.37
2018-06-23T19:25:50.670Z,8.13
2018-06-23T19:28:19.184Z,16.60
2018-06-23T19:30:47.666Z,11.87
2018-06-23T19:33:16.122Z,15.70
2018-06-23T19:35:44.552Z,13.70
2018-06-23T19:38:13.093Z,9.27
2018-06-23T19:40:41.501Z,10.07
2018-06-23T19:43:09.901Z,10.97
2018-06-23T19:45:38.751Z,11.13
2018-06-23T19:48:07.457Z,12.33
2018-06-23T19:50:35.891Z,11.57
2018-06-23T19:53:04.373Z,9.97
2018-06-23T19:55:32.886Z,14.63
2018-06-23T19:58:01.309Z,9.90
2018-06-23T20:00:29.722Z,12.67
2018-06-23T20:02:58.217Z,10.90
2018-06-23T20:05:26.889Z,12.40
2018-06-23T20:07:55.284Z,10.67
2018-06-23T20:10:23.676Z,9.83
2018-06-23T20:12:52.091Z,12.67
2018-06-23T20:15:20.508Z,11.70
2018-06-23T20:17:48.945Z,12.33
2018-06-23T20:20:17.372Z,10.60
2018-06-23T20:22:45.892Z,17.00
2018-06-23T20:25:14.288Z,11.70
2018-06-23T20:27:42.725Z,13.53
2018-06-23T20:30:11.196Z,8.43
2018-06-23T20:32:39.728Z,9.53
2018-06-23T20:35:08.316Z,9.60
2018-06-23T20:37:36.848Z,16.73
2018-06-23T20:40:05.409Z,12.63
2018-06-23T20:42:33.815Z,13.40
2018-06-23T20:45:02.196Z,13.30
2018-06-23T20:47:30.655Z,11.30
2018-06-23T20:49:59.219Z,12.87
2018-06-23T20:52:27.596Z,21.30
2018-06-23T20:54:56.004Z,13.30
2018-06-23T20:57:24.721Z,10.07
2018-06-23T20:59:53.728Z,10.87
2018-06-23T21:02:22.133Z,14.33
2018-06-23T21:04:50.776Z,18.53
2018-06-23T21:07:19.290Z,17.50
2018-06-23T21:09:47.768Z,15.47
2018-06-23T21:12:16.182Z,19.30
2018-06-23T21:14:44.380Z,13.30
2018-06-23T21:17:12.920Z,11.83
2018-06-23T21:19:41.519Z,15.27
2018-06-23T21:22:10.024Z,16.30
2018-06-23T21:24:38.835Z,10.00
2018-06-23T21:27:07.445Z,18.70
2018-06-23T21:29:35.837Z,9.53
2018-06-23T21:32:04.433Z,13.40
2018-06-23T21:34:33.355Z,17.47
2018-06-23T21:37:01.742Z,10.40
2018-06-23T21:39:30.231Z,12.37
2018-06-23T21:41:59.068Z,15.87
2018-06-23T21:44:27.584Z,16.33
2018-06-23T21:46:56.000Z,17.40
2018-06-23T21:49:24.437Z,11.90
2018-06-23T21:51:52.972Z,16.53
2018-06-23T21:54:21.689Z,13.03
2018-06-23T21:56:50.093Z,12.20
2018-06-23T21:59:18.621Z,11.40
2018-06-23T22:01:47.120Z,14.83
2018-06-23T22:04:15.249Z,17.40
2018-06-23T22:06:43.843Z,18.60
2018-06-23T22:09:12.313Z,19.90
2018-06-23T22:11:40.842Z,20.80
2018-06-23T22:14:09.275Z,15.37
2018-06-23T22:16:37.693Z,14.63
2018-06-23T22:19:06.132Z,12.80
2018-06-23T22:21:34.578Z,14.87
2018-06-23T22:24:03.016Z,16.63
2018-06-23T22:26:31.516Z,16.23
2018-06-23T22:29:00.185Z,22.57
2018-06-23T22:31:28.636Z,13.83
2018-06-23T22:33:57.336Z,16.10
2018-06-23T22:36:25.905Z,12.47
2018-06-23T22:38:54.337Z,13.20
2018-06-23T22:41:22.865Z,16.23
2018-06-23T22:43:51.273Z,18.60
2018-06-23T22:46:19.680Z,17.83
2018-06-23T22:48:48.080Z,12.17
2018-06-23T22:51:16.730Z,10.60
2018-06-23T22:53:45.155Z,15.47
2018-06-23T22:56:13.765Z,13.40
2018-06-23T22:58:42.244Z,16.60
2018-06-23T23:01:10.828Z,11.73
2018-06-23T23:03:39.258Z,16.40
2018-06-23T23:06:07.685Z,20.60
2018-06-23T23:08:36.377Z,18.03
2018-06-23T23:11:05.068Z,20.60
2018-06-23T23:13:33.456Z,13.10
2018-06-23T23:16:01.865Z,16.77
2018-06-23T23:18:30.389Z,18.37
2018-06-23T23:20:58.888Z,13.30
2018-06-23T23:23:27.321Z,16.60
2018-06-23T23:25:55.818Z,16.10
2018-06-23T23:28:24.217Z,13.77
2018-06-23T23:30:53.394Z,15.83
2018-06-23T23:33:21.954Z,18.73
2018-06-23T23:35:50.356Z,21.47
2018-06-23T23:38:18.754Z,17.10
2018-06-23T23:40:47.166Z,23.43
2018-06-23T23:43:15.981Z,14.87
2018-06-23T23:45:45.635Z,14.73
2018-06-23T23:48:14.171Z,18.70
2018-06-23T23:50:42.601Z,19.83
2018-06-23T23:53:11.111Z,16.60
2018-06-23T23:55:39.500Z,18.63
2018-06-23T23:58:07.920Z,21.13
